sensor_id;sensor_type;location;lat;lon;timestamp;temperature;humidity
36186;DHT22;22228;53.222;7.446;2023-04-03T00:01:17;1.30;1.00
36186;DHT22;22228;53.222;7.446;2023-04-03T00:03:37;1.20;1.00
36186;DHT22;22228;53.222;7.446;2023-04-03T00:05:58;1.20;99.90
36186;DHT22;22228;53.222;7.446;2023-04-03T00:08:20;1.20;99.90
36186;DHT22;22228;53.222;7.446;2023-04-03T00:10:40;1.20;99.90
36186;DHT22;22228;53.222;7.446;2023-04-03T00:13:01;1.20;99.90
36186;DHT22;22228;53.222;7.446;2023-04-03T03:00:59;-0.50;99.90
36186;DHT22;22228;53.222;7.446;2023-04-03T03:03:20;-0.50;99.90
36186;DHT22;22228;53.222;7.446;2023-04-03T03:05:40;-0.50;99.90
36186;DHT22;22228;53.222;7.446;2023-04-03T03:08:01;-0.60;99.90
36186;DHT22;22228;53.222;7.446;2023-04-03T03:10:22;-0.60;99.90
36186;DHT22;22228;53.222;7.446;2023-04-03T03:12:43;-0.60;99.90
36186;DHT22;22228;53.222;7.446;2023-04-03T03:15:04;-0.60;99.90
36186;DHT22;22228;53.222;7.446;2023-04-03T03:17:26;-0.60;99.90
36186;DHT22;22228;53.222;7.446;2023-04-03T03:19:46;-0.60;99.90
36186;DHT22;22228;53.222;7.446;2023-04-03T03:22:07;-0.70;99.90
36186;DHT22;22228;53.222;7.446;2023-04-03T03:24:27;-0.70;99.90
36186;DHT22;22228;53.222;7.446;2023-04-03T03:26:48;-0.70;99.90
36186;DHT22;22228;53.222;7.446;2023-04-03T03:29:08;-0.70;99.90
36186;DHT22;22228;53.222;7.446;2023-04-03T03:31:29;-0.80;99.90
36186;DHT22;22228;53.222;7.446;2023-04-03T03:33:51;-0.80;99.90
36186;DHT22;22228;53.222;7.446;2023-04-03T03:36:12;-0.80;99.90
36186;DHT22;22228;53.222;7.446;2023-04-03T03:38:32;-0.90;99.90
36186;DHT22;22228;53.222;7.446;2023-04-03T03:40:54;-0.90;99.90
36186;DHT22;22228;53.222;7.446;2023-04-03T03:43:16;-0.90;99.90
36186;DHT22;22228;53.222;7.446;2023-04-03T03:45:37;-0.90;99.90
36186;DHT22;22228;53.222;7.446;2023-04-03T03:47:57;-0.90;99.90
36186;DHT22;22228;53.222;7.446;2023-04-03T03:50:19;-0.90;99.90
36186;DHT22;22228;53.222;7.446;2023-04-03T03:52:39;-1.00;99.90
36186;DHT22;22228;53.222;7.446;2023-04-03T03:55:00;-0.90;99.90
36186;DHT22;22228;53.222;7.446;2023-04-03T03:57:20;-1.00;99.90
36186;DHT22;22228;53.222;7.446;2023-04-03T03:59:42;-1.10;99.90
36186;DHT22;22228;53.222;7.446;2023-04-03T04:02:03;-1.10;99.90
36186;DHT22;22228;53.222;7.446;2023-04-03T04:04:24;-1.20;99.90
36186;DHT22;22228;53.222;7.446;2023-04-03T04:06:45;-1.30;99.90
36186;DHT22;22228;53.222;7.446;2023-04-03T04:09:06;-1.30;99.90
36186;DHT22;22228;53.222;7.446;2023-04-03T04:11:26;-1.30;99.90
36186;DHT22;22228;53.222;7.446;2023-04-03T04:13:47;-1.20;99.90
36186;DHT22;22228;53.222;7.446;2023-04-03T04:16:10;-1.20;99.90
36186;DHT22;22228;53.222;7.446;2023-04-03T04:18:31;-1.20;99.90
36186;DHT22;22228;53.222;7.446;2023-04-03T04:20:51;-1.10;99.90
36186;DHT22;22228;53.222;7.446;2023-04-03T04:23:13;-1.20;99.90
36186;DHT22;22228;53.222;7.446;2023-04-03T04:25:33;-1.10;99.90
36186;DHT22;22228;53.222;7.446;2023-04-03T04:27:54;-1.10;99.90
36186;DHT22;22228;53.222;7.446;2023-04-03T04:30:15;-1.10;99.90
36186;DHT22;22228;53.222;7.446;2023-04-03T04:32:37;-1.10;99.90
36186;DHT22;22228;53.222;7.446;2023-04-03T04:34:58;-1.10;99.90
36186;DHT22;22228;53.222;7.446;2023-04-03T04:37:19;-1.10;99.90
36186;DHT22;22228;53.222;7.446;2023-04-03T04:39:42;-1.10;99.90
36186;DHT22;22228;53.222;7.446;2023-04-03T04:42:02;-1.00;99.90
36186;DHT22;22228;53.222;7.446;2023-04-03T04:44:25;-1.10;99.90
36186;DHT22;22228;53.222;7.446;2023-04-03T04:46:45;-1.10;99.90
36186;DHT22;22228;53.222;7.446;2023-04-03T04:49:06;-1.10;99.90
36186;DHT22;22228;53.222;7.446;2023-04-03T04:51:27;-1.10;99.90
36186;DHT22;22228;53.222;7.446;2023-04-03T04:53:47;-1.10;99.90
36186;DHT22;22228;53.222;7.446;2023-04-03T04:56:11;-1.10;99.90
36186;DHT22;22228;53.222;7.446;2023-04-03T04:58:32;-1.10;99.90
36186;DHT22;22228;53.222;7.446;2023-04-03T05:00:58;-1.10;99.90
36186;DHT22;22228;53.222;7.446;2023-04-03T05:03:19;-1.10;99.90
36186;DHT22;22228;53.222;7.446;2023-04-03T05:05:40;-1.10;99.90
36186;DHT22;22228;53.222;7.446;2023-04-03T05:08:00;-1.10;99.90
36186;DHT22;22228;53.222;7.446;2023-04-03T05:10:21;-1.10;99.90
36186;DHT22;22228;53.222;7.446;2023-04-03T05:12:42;-1.10;99.90
36186;DHT22;22228;53.222;7.446;2023-04-03T05:15:04;-1.10;99.90
36186;DHT22;22228;53.222;7.446;2023-04-03T05:17:26;-1.00;99.90
36186;DHT22;22228;53.222;7.446;2023-04-03T05:19:49;-1.00;99.90
36186;DHT22;22228;53.222;7.446;2023-04-03T05:22:12;-1.00;99.90
36186;DHT22;22228;53.222;7.446;2023-04-03T05:24:34;-1.00;99.90
36186;DHT22;22228;53.222;7.446;2023-04-03T05:26:55;-1.00;99.90
36186;DHT22;22228;53.222;7.446;2023-04-03T05:29:17;-1.00;99.90
36186;DHT22;22228;53.222;7.446;2023-04-03T05:31:39;-1.00;99.90
36186;DHT22;22228;53.222;7.446;2023-04-03T05:34:01;-1.00;99.90
36186;DHT22;22228;53.222;7.446;2023-04-03T05:36:24;-1.00;99.90
36186;DHT22;22228;53.222;7.446;2023-04-03T05:38:50;-1.00;99.90
36186;DHT22;22228;53.222;7.446;2023-04-03T05:41:10;-1.00;99.90
36186;DHT22;22228;53.222;7.446;2023-04-03T05:43:31;-1.00;99.90
36186;DHT22;22228;53.222;7.446;2023-04-03T05:45:54;-0.90;99.90
36186;DHT22;22228;53.222;7.446;2023-04-03T05:48:16;-0.90;99.90
36186;DHT22;22228;53.222;7.446;2023-04-03T05:50:37;-0.90;99.90
36186;DHT22;22228;53.222;7.446;2023-04-03T05:53:02;-0.80;99.90
36186;DHT22;22228;53.222;7.446;2023-04-03T05:55:25;-0.80;99.90
36186;DHT22;22228;53.222;7.446;2023-04-03T05:57:45;-0.70;99.90
36186;DHT22;22228;53.222;7.446;2023-04-03T06:00:08;-0.70;99.90
36186;DHT22;22228;53.222;7.446;2023-04-03T06:02:34;-0.60;99.90
36186;DHT22;22228;53.222;7.446;2023-04-03T06:04:55;-0.50;99.90
36186;DHT22;22228;53.222;7.446;2023-04-03T06:07:17;-0.50;99.90
36186;DHT22;22228;53.222;7.446;2023-04-03T06:09:38;-0.50;99.90
36186;DHT22;22228;53.222;7.446;2023-04-03T06:11:59;-0.40;99.90
36186;DHT22;22228;53.222;7.446;2023-04-03T06:14:21;-0.40;99.90
36186;DHT22;22228;53.222;7.446;2023-04-03T06:16:42;-0.30;99.90
36186;DHT22;22228;53.222;7.446;2023-04-03T06:19:04;-0.20;99.90
36186;DHT22;22228;53.222;7.446;2023-04-03T06:21:24;-0.20;99.90
36186;DHT22;22228;53.222;7.446;2023-04-03T06:23:45;-0.10;99.90
36186;DHT22;22228;53.222;7.446;2023-04-03T06:26:05;0.00;99.90
36186;DHT22;22228;53.222;7.446;2023-04-03T06:28:26;0.10;99.90
36186;DHT22;22228;53.222;7.446;2023-04-03T06:30:46;0.20;99.90
36186;DHT22;22228;53.222;7.446;2023-04-03T06:33:07;0.30;99.90
36186;DHT22;22228;53.222;7.446;2023-04-03T06:35:28;0.40;99.90
36186;DHT22;22228;53.222;7.446;2023-04-03T06:37:49;0.50;99.90
36186;DHT22;22228;53.222;7.446;2023-04-03T06:40:15;0.50;99.90
36186;DHT22;22228;53.222;7.446;2023-04-03T06:42:38;0.60;99.90
36186;DHT22;22228;53.222;7.446;2023-04-03T06:45:03;0.70;99.90
36186;DHT22;22228;53.222;7.446;2023-04-03T06:47:24;0.80;99.90
36186;DHT22;22228;53.222;7.446;2023-04-03T06:49:45;0.90;99.90
36186;DHT22;22228;53.222;7.446;2023-04-03T06:52:07;1.00;99.90
36186;DHT22;22228;53.222;7.446;2023-04-03T06:54:27;1.00;99.90
36186;DHT22;22228;53.222;7.446;2023-04-03T06:56:48;1.10;99.90
36186;DHT22;22228;53.222;7.446;2023-04-03T06:59:09;1.10;99.90
36186;DHT22;22228;53.222;7.446;2023-04-03T07:01:30;1.20;99.90
36186;DHT22;22228;53.222;7.446;2023-04-03T07:03:50;1.40;99.90
36186;DHT22;22228;53.222;7.446;2023-04-03T07:06:12;1.40;99.90
36186;DHT22;22228;53.222;7.446;2023-04-03T07:08:34;1.60;99.90
36186;DHT22;22228;53.222;7.446;2023-04-03T07:10:54;1.70;99.90
36186;DHT22;22228;53.222;7.446;2023-04-03T07:13:15;1.70;99.90
36186;DHT22;22228;53.222;7.446;2023-04-03T07:15:35;1.80;99.90
36186;DHT22;22228;53.222;7.446;2023-04-03T07:17:56;1.90;99.90
36186;DHT22;22228;53.222;7.446;2023-04-03T07:20:16;2.00;99.90
36186;DHT22;22228;53.222;7.446;2023-04-03T07:22:37;2.10;99.90
36186;DHT22;22228;53.222;7.446;2023-04-03T07:24:58;2.20;91.00
36186;DHT22;22228;53.222;7.446;2023-04-03T07:27:19;2.30;50.20
36186;DHT22;22228;53.222;7.446;2023-04-03T07:29:39;2.40;36.70
36186;DHT22;22228;53.222;7.446;2023-04-03T07:31:59;2.50;21.60
36186;DHT22;22228;53.222;7.446;2023-04-03T07:34:20;2.60;14.50
36186;DHT22;22228;53.222;7.446;2023-04-03T07:36:40;2.70;14.90
36186;DHT22;22228;53.222;7.446;2023-04-03T07:39:01;2.80;5.20
36186;DHT22;22228;53.222;7.446;2023-04-03T07:41:22;2.80;1.00
36186;DHT22;22228;53.222;7.446;2023-04-03T07:43:43;2.90;1.00
36186;DHT22;22228;53.222;7.446;2023-04-03T07:46:04;3.00;1.00
36186;DHT22;22228;53.222;7.446;2023-04-03T07:48:26;3.10;1.00
36186;DHT22;22228;53.222;7.446;2023-04-03T07:50:46;3.20;1.00
36186;DHT22;22228;53.222;7.446;2023-04-03T07:53:07;3.30;1.00
36186;DHT22;22228;53.222;7.446;2023-04-03T07:55:27;3.50;1.00
36186;DHT22;22228;53.222;7.446;2023-04-03T07:57:49;3.50;1.00
36186;DHT22;22228;53.222;7.446;2023-04-03T08:00:11;3.60;1.00
36186;DHT22;22228;53.222;7.446;2023-04-03T08:02:34;3.80;1.00
36186;DHT22;22228;53.222;7.446;2023-04-03T08:04:54;3.90;1.00
36186;DHT22;22228;53.222;7.446;2023-04-03T08:07:15;3.90;99.90
36186;DHT22;22228;53.222;7.446;2023-04-03T08:09:35;4.00;99.90
36186;DHT22;22228;53.222;7.446;2023-04-03T08:11:56;4.20;99.90
36186;DHT22;22228;53.222;7.446;2023-04-03T08:14:17;4.30;99.90
36186;DHT22;22228;53.222;7.446;2023-04-03T08:16:38;4.40;99.90
36186;DHT22;22228;53.222;7.446;2023-04-03T08:18:58;4.60;1.00
36186;DHT22;22228;53.222;7.446;2023-04-03T08:21:19;4.60;1.00
36186;DHT22;22228;53.222;7.446;2023-04-03T08:23:40;4.70;25.00
36186;DHT22;22228;53.222;7.446;2023-04-03T08:26:06;4.80;1.00
36186;DHT22;22228;53.222;7.446;2023-04-03T08:28:27;4.90;1.00
36186;DHT22;22228;53.222;7.446;2023-04-03T08:30:48;5.00;1.00
36186;DHT22;22228;53.222;7.446;2023-04-03T08:33:10;5.10;99.90
36186;DHT22;22228;53.222;7.446;2023-04-03T08:35:30;5.20;1.00
36186;DHT22;22228;53.222;7.446;2023-04-03T08:37:50;5.30;99.90
36186;DHT22;22228;53.222;7.446;2023-04-03T08:40:14;5.40;1.00
36186;DHT22;22228;53.222;7.446;2023-04-03T08:42:44;5.50;1.00
36186;DHT22;22228;53.222;7.446;2023-04-03T08:45:09;5.60;1.00
36186;DHT22;22228;53.222;7.446;2023-04-03T08:47:38;5.70;1.00
36186;DHT22;22228;53.222;7.446;2023-04-03T08:50:00;5.80;1.00
36186;DHT22;22228;53.222;7.446;2023-04-03T08:52:27;5.90;99.90
36186;DHT22;22228;53.222;7.446;2023-04-03T08:54:54;6.00;99.90
36186;DHT22;22228;53.222;7.446;2023-04-03T08:57:26;6.10;99.90
36186;DHT22;22228;53.222;7.446;2023-04-03T08:59:48;6.20;99.90
36186;DHT22;22228;53.222;7.446;2023-04-03T09:02:23;6.30;1.00
36186;DHT22;22228;53.222;7.446;2023-04-03T09:04:45;6.40;99.90
36186;DHT22;22228;53.222;7.446;2023-04-03T09:07:11;6.50;99.90
36186;DHT22;22228;53.222;7.446;2023-04-03T09:09:36;6.60;1.00
36186;DHT22;22228;53.222;7.446;2023-04-03T09:12:04;6.70;1.00
36186;DHT22;22228;53.222;7.446;2023-04-03T09:14:33;6.80;99.90
36186;DHT22;22228;53.222;7.446;2023-04-03T09:16:56;6.90;1.00
36186;DHT22;22228;53.222;7.446;2023-04-03T09:19:21;6.90;1.00
36186;DHT22;22228;53.222;7.446;2023-04-03T09:21:45;7.00;1.00
36186;DHT22;22228;53.222;7.446;2023-04-03T09:24:06;7.10;48.30
36186;DHT22;22228;53.222;7.446;2023-04-03T09:26:31;7.20;31.10
36186;DHT22;22228;53.222;7.446;2023-04-03T09:28:57;7.30;57.00
36186;DHT22;22228;53.222;7.446;2023-04-03T09:31:20;7.50;60.10
36186;DHT22;22228;53.222;7.446;2023-04-03T09:33:41;7.50;62.90
36186;DHT22;22228;53.222;7.446;2023-04-03T09:36:02;7.60;51.80
36186;DHT22;22228;53.222;7.446;2023-04-03T09:38:24;7.50;95.10
36186;DHT22;22228;53.222;7.446;2023-04-03T09:40:45;7.60;97.10
36186;DHT22;22228;53.222;7.446;2023-04-03T09:43:26;7.70;97.50
36186;DHT22;22228;53.222;7.446;2023-04-03T09:45:47;7.80;99.90
36186;DHT22;22228;53.222;7.446;2023-04-03T09:48:15;7.90;99.90
36186;DHT22;22228;53.222;7.446;2023-04-03T09:50:37;8.00;99.90
36186;DHT22;22228;53.222;7.446;2023-04-03T09:52:57;8.10;99.90
36186;DHT22;22228;53.222;7.446;2023-04-03T09:55:21;8.20;99.90
36186;DHT22;22228;53.222;7.446;2023-04-03T09:57:46;8.20;99.90
36186;DHT22;22228;53.222;7.446;2023-04-03T10:00:20;8.20;99.90
36186;DHT22;22228;53.222;7.446;2023-04-03T10:02:42;8.20;99.90
36186;DHT22;22228;53.222;7.446;2023-04-03T10:05:04;8.30;99.90
36186;DHT22;22228;53.222;7.446;2023-04-03T10:07:33;8.40;99.90
36186;DHT22;22228;53.222;7.446;2023-04-03T10:09:55;8.50;99.90
36186;DHT22;22228;53.222;7.446;2023-04-03T10:12:19;8.50;99.90
36186;DHT22;22228;53.222;7.446;2023-04-03T10:14:54;8.60;99.90
36186;DHT22;22228;53.222;7.446;2023-04-03T10:17:21;8.60;99.90
36186;DHT22;22228;53.222;7.446;2023-04-03T10:19:46;8.70;99.90
36186;DHT22;22228;53.222;7.446;2023-04-03T10:22:18;8.70;99.90
36186;DHT22;22228;53.222;7.446;2023-04-03T10:24:47;8.90;99.90
36186;DHT22;22228;53.222;7.446;2023-04-03T10:27:11;8.90;99.90
36186;DHT22;22228;53.222;7.446;2023-04-03T10:29:40;9.00;99.90
36186;DHT22;22228;53.222;7.446;2023-04-03T10:32:12;9.10;99.90
36186;DHT22;22228;53.222;7.446;2023-04-03T10:34:38;9.30;99.90
36186;DHT22;22228;53.222;7.446;2023-04-03T10:37:06;9.40;99.90
36186;DHT22;22228;53.222;7.446;2023-04-03T10:39:39;9.40;99.90
36186;DHT22;22228;53.222;7.446;2023-04-03T10:42:03;9.50;99.90
36186;DHT22;22228;53.222;7.446;2023-04-03T10:44:31;9.60;99.90
36186;DHT22;22228;53.222;7.446;2023-04-03T10:47:03;9.80;99.90
36186;DHT22;22228;53.222;7.446;2023-04-03T10:49:36;9.90;99.90
36186;DHT22;22228;53.222;7.446;2023-04-03T10:52:06;9.80;1.00
36186;DHT22;22228;53.222;7.446;2023-04-03T10:54:32;9.90;1.00
36186;DHT22;22228;53.222;7.446;2023-04-03T10:56:56;10.00;1.00
36186;DHT22;22228;53.222;7.446;2023-04-03T10:59:27;9.90;1.00
36186;DHT22;22228;53.222;7.446;2023-04-03T11:01:52;10.20;1.00
36186;DHT22;22228;53.222;7.446;2023-04-03T11:04:16;10.30;1.00
36186;DHT22;22228;53.222;7.446;2023-04-03T11:06:42;10.50;1.00
36186;DHT22;22228;53.222;7.446;2023-04-03T11:09:10;10.80;1.00
36186;DHT22;22228;53.222;7.446;2023-04-03T11:11:33;11.20;1.00
36186;DHT22;22228;53.222;7.446;2023-04-03T11:13:57;11.50;1.00
36186;DHT22;22228;53.222;7.446;2023-04-03T11:16:24;11.40;1.00
36186;DHT22;22228;53.222;7.446;2023-04-03T11:18:48;11.00;1.00
36186;DHT22;22228;53.222;7.446;2023-04-03T11:21:14;10.70;1.00
36186;DHT22;22228;53.222;7.446;2023-04-03T11:23:38;10.30;1.00
36186;DHT22;22228;53.222;7.446;2023-04-03T11:26:08;10.10;1.00
36186;DHT22;22228;53.222;7.446;2023-04-03T11:28:29;10.00;1.00
36186;DHT22;22228;53.222;7.446;2023-04-03T11:30:57;9.90;1.00
36186;DHT22;22228;53.222;7.446;2023-04-03T11:33:32;9.90;1.00
36186;DHT22;22228;53.222;7.446;2023-04-03T11:35:59;9.90;1.00
36186;DHT22;22228;53.222;7.446;2023-04-03T11:38:24;9.90;1.00
36186;DHT22;22228;53.222;7.446;2023-04-03T11:40:47;9.90;1.00
36186;DHT22;22228;53.222;7.446;2023-04-03T11:43:21;9.80;1.00
36186;DHT22;22228;53.222;7.446;2023-04-03T11:45:50;9.70;1.00
36186;DHT22;22228;53.222;7.446;2023-04-03T11:51:39;9.50;1.00
36186;DHT22;22228;53.222;7.446;2023-04-03T11:54:47;9.40;1.00
36186;DHT22;22228;53.222;7.446;2023-04-03T11:59:58;9.50;1.00
36186;DHT22;22228;53.222;7.446;2023-04-03T12:02:36;9.50;1.00
36186;DHT22;22228;53.222;7.446;2023-04-03T12:05:25;9.60;1.00
36186;DHT22;22228;53.222;7.446;2023-04-03T12:08:15;9.60;1.00
36186;DHT22;22228;53.222;7.446;2023-04-03T12:10:37;9.40;1.00
36186;DHT22;22228;53.222;7.446;2023-04-03T12:12:59;9.50;1.00
36186;DHT22;22228;53.222;7.446;2023-04-03T12:21:12;9.70;1.00
36186;DHT22;22228;53.222;7.446;2023-04-03T12:23:34;9.70;1.00
36186;DHT22;22228;53.222;7.446;2023-04-03T12:26:06;9.80;1.00
36186;DHT22;22228;53.222;7.446;2023-04-03T12:28:39;9.80;1.00
36186;DHT22;22228;53.222;7.446;2023-04-03T12:31:01;9.90;1.00
36186;DHT22;22228;53.222;7.446;2023-04-03T12:33:30;9.80;1.00
36186;DHT22;22228;53.222;7.446;2023-04-03T12:36:05;9.90;1.00
36186;DHT22;22228;53.222;7.446;2023-04-03T12:38:47;9.80;1.00
36186;DHT22;22228;53.222;7.446;2023-04-03T12:41:25;9.70;1.00
36186;DHT22;22228;53.222;7.446;2023-04-03T12:43:54;9.60;1.00
36186;DHT22;22228;53.222;7.446;2023-04-03T12:46:21;9.70;1.00
36186;DHT22;22228;53.222;7.446;2023-04-03T12:48:48;9.60;1.00
36186;DHT22;22228;53.222;7.446;2023-04-03T12:51:14;9.70;1.00
36186;DHT22;22228;53.222;7.446;2023-04-03T12:53:35;9.60;1.00
36186;DHT22;22228;53.222;7.446;2023-04-03T12:56:18;9.50;1.00
36186;DHT22;22228;53.222;7.446;2023-04-03T12:58:41;9.50;1.00
36186;DHT22;22228;53.222;7.446;2023-04-03T13:01:03;9.30;1.00
36186;DHT22;22228;53.222;7.446;2023-04-03T13:03:25;9.30;1.00
36186;DHT22;22228;53.222;7.446;2023-04-03T13:05:46;9.30;1.00
36186;DHT22;22228;53.222;7.446;2023-04-03T13:08:10;9.40;1.00
36186;DHT22;22228;53.222;7.446;2023-04-03T13:10:49;9.50;1.00
36186;DHT22;22228;53.222;7.446;2023-04-03T13:13:14;9.70;1.00
36186;DHT22;22228;53.222;7.446;2023-04-03T13:15:43;10.10;1.00
36186;DHT22;22228;53.222;7.446;2023-04-03T13:18:05;10.50;1.00
36186;DHT22;22228;53.222;7.446;2023-04-03T13:20:28;11.10;1.00
36186;DHT22;22228;53.222;7.446;2023-04-03T13:22:52;12.20;1.00
36186;DHT22;22228;53.222;7.446;2023-04-03T13:25:15;13.40;1.00
36186;DHT22;22228;53.222;7.446;2023-04-03T13:27:38;14.70;1.00
36186;DHT22;22228;53.222;7.446;2023-04-03T13:30:04;16.10;1.00
36186;DHT22;22228;53.222;7.446;2023-04-03T13:32:29;17.00;1.00
36186;DHT22;22228;53.222;7.446;2023-04-03T13:34:50;17.70;1.00
36186;DHT22;22228;53.222;7.446;2023-04-03T13:37:20;18.40;1.00
36186;DHT22;22228;53.222;7.446;2023-04-03T13:39:41;19.40;1.00
36186;DHT22;22228;53.222;7.446;2023-04-03T13:42:15;19.60;1.00
36186;DHT22;22228;53.222;7.446;2023-04-03T13:44:37;19.80;1.00
36186;DHT22;22228;53.222;7.446;2023-04-03T13:46:59;19.50;1.00
36186;DHT22;22228;53.222;7.446;2023-04-03T13:49:29;19.30;1.00
36186;DHT22;22228;53.222;7.446;2023-04-03T13:51:50;18.60;1.00
36186;DHT22;22228;53.222;7.446;2023-04-03T13:54:19;17.80;1.00
36186;DHT22;22228;53.222;7.446;2023-04-03T13:56:41;16.90;1.00
36186;DHT22;22228;53.222;7.446;2023-04-03T13:59:06;15.80;1.00
36186;DHT22;22228;53.222;7.446;2023-04-03T14:01:43;15.10;1.00
36186;DHT22;22228;53.222;7.446;2023-04-03T14:04:13;14.50;1.00
36186;DHT22;22228;53.222;7.446;2023-04-03T14:06:35;13.90;1.00
36186;DHT22;22228;53.222;7.446;2023-04-03T14:08:56;13.40;1.00
36186;DHT22;22228;53.222;7.446;2023-04-03T14:11:19;13.10;1.00
36186;DHT22;22228;53.222;7.446;2023-04-03T14:13:41;12.60;1.00
36186;DHT22;22228;53.222;7.446;2023-04-03T14:16:03;12.30;1.00
36186;DHT22;22228;53.222;7.446;2023-04-03T14:18:23;11.90;1.00
36186;DHT22;22228;53.222;7.446;2023-04-03T14:20:44;11.30;1.00
36186;DHT22;22228;53.222;7.446;2023-04-03T14:23:06;11.20;1.00
36186;DHT22;22228;53.222;7.446;2023-04-03T14:25:26;11.60;1.00
36186;DHT22;22228;53.222;7.446;2023-04-03T14:27:49;12.70;1.00
36186;DHT22;22228;53.222;7.446;2023-04-03T14:30:14;14.30;1.00
36186;DHT22;22228;53.222;7.446;2023-04-03T14:32:34;15.80;1.00
36186;DHT22;22228;53.222;7.446;2023-04-03T14:34:55;17.20;1.00
36186;DHT22;22228;53.222;7.446;2023-04-03T14:37:19;18.00;1.00
36186;DHT22;22228;53.222;7.446;2023-04-03T14:39:41;18.10;1.00
36186;DHT22;22228;53.222;7.446;2023-04-03T14:42:02;18.20;1.00
36186;DHT22;22228;53.222;7.446;2023-04-03T14:44:22;18.30;1.00
36186;DHT22;22228;53.222;7.446;2023-04-03T14:46:44;18.70;1.00
36186;DHT22;22228;53.222;7.446;2023-04-03T14:49:12;19.10;1.00
36186;DHT22;22228;53.222;7.446;2023-04-03T14:51:34;19.40;1.00
36186;DHT22;22228;53.222;7.446;2023-04-03T14:53:56;18.90;1.00
36186;DHT22;22228;53.222;7.446;2023-04-03T14:56:21;19.00;1.00
36186;DHT22;22228;53.222;7.446;2023-04-03T14:58:43;19.10;1.00
36186;DHT22;22228;53.222;7.446;2023-04-03T15:01:03;19.50;1.00
36186;DHT22;22228;53.222;7.446;2023-04-03T15:03:24;19.10;1.00
36186;DHT22;22228;53.222;7.446;2023-04-03T15:05:46;18.70;1.00
36186;DHT22;22228;53.222;7.446;2023-04-03T15:08:16;18.70;1.00
36186;DHT22;22228;53.222;7.446;2023-04-03T15:10:37;18.80;1.00
36186;DHT22;22228;53.222;7.446;2023-04-03T15:12:59;18.60;1.00
36186;DHT22;22228;53.222;7.446;2023-04-03T15:15:21;18.20;1.00
36186;DHT22;22228;53.222;7.446;2023-04-03T15:17:42;17.60;1.00
36186;DHT22;22228;53.222;7.446;2023-04-03T15:20:05;17.80;1.00
36186;DHT22;22228;53.222;7.446;2023-04-03T15:22:31;18.30;1.00
36186;DHT22;22228;53.222;7.446;2023-04-03T15:24:51;18.50;1.00
36186;DHT22;22228;53.222;7.446;2023-04-03T15:27:13;18.20;1.00
36186;DHT22;22228;53.222;7.446;2023-04-03T15:29:36;18.70;1.00
36186;DHT22;22228;53.222;7.446;2023-04-03T15:31:56;19.00;1.00
36186;DHT22;22228;53.222;7.446;2023-04-03T15:34:17;18.70;1.00
36186;DHT22;22228;53.222;7.446;2023-04-03T15:36:37;18.20;1.00
36186;DHT22;22228;53.222;7.446;2023-04-03T15:38:57;18.20;1.00
36186;DHT22;22228;53.222;7.446;2023-04-03T15:41:18;18.40;1.00
36186;DHT22;22228;53.222;7.446;2023-04-03T15:43:38;18.40;1.00
36186;DHT22;22228;53.222;7.446;2023-04-03T15:46:00;17.30;1.00
36186;DHT22;22228;53.222;7.446;2023-04-03T15:48:21;17.00;1.00
36186;DHT22;22228;53.222;7.446;2023-04-03T15:50:42;16.90;1.00
36186;DHT22;22228;53.222;7.446;2023-04-03T15:53:02;16.90;1.00
36186;DHT22;22228;53.222;7.446;2023-04-03T15:55:24;16.40;1.00
36186;DHT22;22228;53.222;7.446;2023-04-03T15:57:44;15.70;1.00
36186;DHT22;22228;53.222;7.446;2023-04-03T16:00:06;15.60;1.00
36186;DHT22;22228;53.222;7.446;2023-04-03T16:02:28;15.40;1.00
36186;DHT22;22228;53.222;7.446;2023-04-03T16:04:49;15.70;1.00
36186;DHT22;22228;53.222;7.446;2023-04-03T16:07:09;15.90;1.00
36186;DHT22;22228;53.222;7.446;2023-04-03T16:09:30;15.80;1.00
36186;DHT22;22228;53.222;7.446;2023-04-03T16:11:51;15.70;1.00
36186;DHT22;22228;53.222;7.446;2023-04-03T16:14:12;15.00;1.00
36186;DHT22;22228;53.222;7.446;2023-04-03T16:16:33;14.50;1.00
36186;DHT22;22228;53.222;7.446;2023-04-03T16:18:55;13.80;1.00
36186;DHT22;22228;53.222;7.446;2023-04-03T16:21:17;13.00;1.00
36186;DHT22;22228;53.222;7.446;2023-04-03T16:23:37;12.70;1.00
36186;DHT22;22228;53.222;7.446;2023-04-03T16:25:58;12.50;1.00
36186;DHT22;22228;53.222;7.446;2023-04-03T16:28:18;12.90;1.00
36186;DHT22;22228;53.222;7.446;2023-04-03T16:30:39;13.10;1.00
36186;DHT22;22228;53.222;7.446;2023-04-03T16:33:00;12.60;1.00
36186;DHT22;22228;53.222;7.446;2023-04-03T16:35:23;11.90;1.00
36186;DHT22;22228;53.222;7.446;2023-04-03T16:37:43;11.50;1.00
36186;DHT22;22228;53.222;7.446;2023-04-03T16:40:05;11.50;1.00
36186;DHT22;22228;53.222;7.446;2023-04-03T16:42:26;11.40;1.00
36186;DHT22;22228;53.222;7.446;2023-04-03T16:44:46;11.00;1.00
36186;DHT22;22228;53.222;7.446;2023-04-03T16:47:07;10.70;1.00
36186;DHT22;22228;53.222;7.446;2023-04-03T16:49:27;10.90;1.00
36186;DHT22;22228;53.222;7.446;2023-04-03T16:51:52;11.40;1.00
36186;DHT22;22228;53.222;7.446;2023-04-03T16:54:12;11.20;1.00
36186;DHT22;22228;53.222;7.446;2023-04-03T16:56:33;11.10;1.00
36186;DHT22;22228;53.222;7.446;2023-04-03T16:58:53;11.10;1.00
36186;DHT22;22228;53.222;7.446;2023-04-03T17:01:16;10.90;1.00
36186;DHT22;22228;53.222;7.446;2023-04-03T17:03:36;10.70;1.00
36186;DHT22;22228;53.222;7.446;2023-04-03T17:05:57;10.40;1.00
36186;DHT22;22228;53.222;7.446;2023-04-03T17:08:19;10.10;1.00
36186;DHT22;22228;53.222;7.446;2023-04-03T17:10:39;9.70;1.00
36186;DHT22;22228;53.222;7.446;2023-04-03T17:13:00;9.50;1.00
36186;DHT22;22228;53.222;7.446;2023-04-03T17:15:20;9.20;1.00
36186;DHT22;22228;53.222;7.446;2023-04-03T17:17:41;8.90;1.00
36186;DHT22;22228;53.222;7.446;2023-04-03T17:20:02;8.70;1.00
36186;DHT22;22228;53.222;7.446;2023-04-03T17:22:23;8.40;1.00
36186;DHT22;22228;53.222;7.446;2023-04-03T17:24:45;8.20;1.00
36186;DHT22;22228;53.222;7.446;2023-04-03T17:27:05;8.00;1.00
36186;DHT22;22228;53.222;7.446;2023-04-03T17:29:26;7.80;1.00
36186;DHT22;22228;53.222;7.446;2023-04-03T17:31:46;7.70;1.00
36186;DHT22;22228;53.222;7.446;2023-04-03T17:34:07;7.50;1.00
36186;DHT22;22228;53.222;7.446;2023-04-03T17:36:31;7.30;1.00
36186;DHT22;22228;53.222;7.446;2023-04-03T17:38:52;7.20;1.00
36186;DHT22;22228;53.222;7.446;2023-04-03T17:41:14;7.00;1.00
36186;DHT22;22228;53.222;7.446;2023-04-03T17:43:35;6.90;18.80
36186;DHT22;22228;53.222;7.446;2023-04-03T17:45:59;6.80;99.90
36186;DHT22;22228;53.222;7.446;2023-04-03T17:48:21;6.70;99.90
36186;DHT22;22228;53.222;7.446;2023-04-03T17:50:41;6.60;99.90
36186;DHT22;22228;53.222;7.446;2023-04-03T17:53:02;6.60;99.90
36186;DHT22;22228;53.222;7.446;2023-04-03T17:55:22;6.50;1.00
36186;DHT22;22228;53.222;7.446;2023-04-03T17:57:44;6.40;1.00
36186;DHT22;22228;53.222;7.446;2023-04-03T18:00:06;6.30;1.00
36186;DHT22;22228;53.222;7.446;2023-04-03T18:02:31;6.20;99.90
36186;DHT22;22228;53.222;7.446;2023-04-03T18:04:52;6.00;99.90
36186;DHT22;22228;53.222;7.446;2023-04-03T18:07:13;5.90;1.00
36186;DHT22;22228;53.222;7.446;2023-04-03T18:09:33;5.80;1.00
36186;DHT22;22228;53.222;7.446;2023-04-03T18:11:55;5.70;99.90
36186;DHT22;22228;53.222;7.446;2023-04-03T18:14:20;5.70;99.90
36186;DHT22;22228;53.222;7.446;2023-04-03T18:16:41;5.60;1.00
36186;DHT22;22228;53.222;7.446;2023-04-03T18:19:02;5.50;1.00